Airfield :
LOGIN :

Register | Disclaimer

   EN    FR    IT 

 










Legend :    VFR   Marginal VFR   IFR   Intensive IFR   Very Intensive IFR
Visi :
Ceiling :
>= 8 km
>= 3000ft
5 to 8 km
1000 to 3000 ft
1500m to 5 km
500 to 1000 ft
800 to 1500m
200 to 500 ft
< 800m
< 200 ft
Symbols :   Thunderstorms  Fog  Heavy snow  Heavy precipitations  Wind > 20 kt
SIGMETs :     Misc.  Thunderstorms  Icing  Turbulence  Mountain Waves  Volcanic Ashes






- Airport Elevation : 156 ft
- IATA code : LCC


LIBN - Lecce Galatine (military)

CURRENT METAR :
  • 040955Z 35010KT 9999 SCT035 30/23 Q1012 RMK BKN SCT100 VIS MIN 9999 WIND THR14 34009KT WIND THR32 35010KT BLU

EXPIRED METARs :
  • 040855Z 35013KT 9999 FEW050 29/23 Q1012 RMK SCT VIS MIN 9999 WIND THR14 36012KT WIND THR32 35013KT BLU
  • 040755Z 34011KT 9999 FEW050 28/22 Q1012 RMK SCT VIS MIN 9999 WIND THR14 34010KT WIND THR32 34011KT BLU

Expired Forecast.



MET'MAP, your aeronautical weather chart ! - Copyright ORBIFLY December 2007 - Disclaimer

ORBIFLY MET'MAP TEAM :

Programming & Development : Alexandra Zaïnal
Concept & original design : Baudouin d'Aumeries
Assistance for programming : Marc-Olivier Méhu
Technical & hardware support : Manuel Goepfert

Contact : metmap@orbifly.com




SOURCES & CREDITS :

   NOAA